Time;durP1;ratioP1;P1;durP2;ratioP2;P2;SDS_P1;SDS_P2;PMS_P1;PMS_P2;Temp;Humidity;BMP_temperature;BMP_pressure;BME280_temperature;BME280_humidity;BME280_pressure;Samples;Min_cycle;Max_cycle;Signal;HPM_P1;HPM_P2
2023/06/18 00:01:46;;;;;;;8.27;6.53;;;;;;;;;;4946504;29;20047;-61
2023/06/18 00:04:15;;;;;;;8.10;6.20;;;;;;;;;;4944577;29;20488;-61
2023/06/18 00:06:54;;;;;;;7.28;6.13;;;16.80;78.50;;;;;;4947748;29;20082;-61
2023/06/18 00:09:29;;;;;;;9.00;6.40;;;16.60;79.20;;;;;;4945454;29;20023;-61
2023/06/18 00:11:58;;;;;;;9.68;7.13;;;16.60;79.70;;;;;;4943397;28;20067;-61
2023/06/18 00:14:35;;;;;;;10.07;6.93;;;16.60;79.10;;;;;;4940718;29;20039;-61
2023/06/18 00:17:06;;;;;;;6.70;6.00;;;16.60;79.10;;;;;;4946336;29;20033;-61
2023/06/18 00:19:34;;;;;;;8.02;6.53;;;16.70;79.00;;;;;;4951660;29;20055;-61
2023/06/18 00:22:00;;;;;;;9.35;6.50;;;16.70;79.00;;;;;;4953668;29;20045;-61
2023/06/18 00:24:26;;;;;;;9.57;6.03;;;16.80;79.00;;;;;;4953749;29;20070;-61
2023/06/18 00:26:57;;;;;;;9.20;7.25;;;16.70;78.80;;;;;;4953680;29;20106;-61
2023/06/18 00:29:26;;;;;;;8.98;6.72;;;16.70;79.20;;;;;;4953761;29;20747;-61
2023/06/18 00:31:51;;;;;;;9.68;6.43;;;16.70;79.20;;;;;;4953493;29;20047;-61
2023/06/18 00:34:32;;;;;;;9.45;6.15;;;16.60;79.30;;;;;;4953017;29;20922;-61
2023/06/18 00:37:10;;;;;;;8.85;6.05;;;16.60;79.50;;;;;;4948968;29;20423;-60
2023/06/18 00:39:39;;;;;;;6.88;5.80;;;;;;;;;;4953564;29;20086;-61
2023/06/18 00:42:11;;;;;;;8.52;6.25;;;;;;;;;;4947422;29;20094;-62
2023/06/18 00:44:42;;;;;;;8.52;6.78;;;;;;;;;;4943519;29;20027;-61
2023/06/18 00:47:12;;;;;;;9.00;6.25;;;;;;;;;;4952473;29;20027;-61
2023/06/18 00:49:41;;;;;;;8.30;6.28;;;;;;;;;;4953199;29;20477;-61
2023/06/18 00:52:08;;;;;;;8.60;6.50;;;;;;;;;;4953362;29;20126;-60
2023/06/18 00:54:38;;;;;;;8.35;6.43;;;;;;;;;;4949859;29;20365;-61
2023/06/18 00:57:08;;;;;;;7.32;6.47;;;;;;;;;;4953062;29;20424;-60
2023/06/18 00:59:37;;;;;;;7.60;5.78;;;;;;;;;;4945917;29;20097;-61
2023/06/18 01:02:07;;;;;;;8.32;6.15;;;;;;;;;;4951153;29;20050;-61
2023/06/18 01:04:36;;;;;;;7.93;6.15;;;;;;;;;;4953274;29;20183;-61
2023/06/18 01:07:12;;;;;;;6.78;5.75;;;;;;;;;;4952874;29;20168;-60
2023/06/18 01:09:40;;;;;;;7.47;6.50;;;;;;;;;;4953192;29;20488;-61
2023/06/18 01:12:09;;;;;;;9.00;7.32;;;;;;;;;;4952448;29;20304;-60
2023/06/18 01:14:37;;;;;;;9.77;7.00;;;;;;;;;;4952928;29;20019;-61
2023/06/18 01:17:04;;;;;;;8.35;6.47;;;;;;;;;;4951610;29;20046;-61
2023/06/18 01:19:35;;;;;;;9.07;6.97;;;;;;;;;;4948362;29;20122;-60
2023/06/18 01:22:04;;;;;;;9.32;6.82;;;;;;;;;;4949503;29;20043;-61
2023/06/18 01:24:32;;;;;;;8.23;6.40;;;;;;;;;;4952538;28;20024;-60
2023/06/18 01:26:59;;;;;;;7.10;5.95;;;;;;;;;;4952082;29;20020;-61
2023/06/18 01:29:31;;;;;;;8.65;6.43;;;;;;;;;;4943672;29;20079;-60
2023/06/18 01:31:57;;;;;;;10.27;7.32;;;;;;;;;;4944739;29;20052;-61
2023/06/18 01:34:27;;;;;;;7.32;6.18;;;;;;;;;;4942917;29;20038;-61
2023/06/18 01:37:01;;;;;;;8.52;6.22;;;;;;;;;;4951990;29;20390;-60
2023/06/18 01:39:35;;;;;;;7.95;6.03;;;;;;;;;;4952699;29;20051;-61
2023/06/18 01:42:21;;;;;;;8.77;6.82;;;;;;;;;;4931738;29;20400;-60
2023/06/18 01:44:56;;;;;;;9.13;6.57;;;;;;;;;;4947835;29;20016;-61
2023/06/18 01:47:27;;;;;;;8.85;6.85;;;;;;;;;;4953215;29;20089;-61
2023/06/18 01:50:02;;;;;;;8.13;6.78;;;;;;;;;;4952048;29;20473;-60
2023/06/18 01:52:40;;;;;;;7.97;6.30;;;;;;;;;;4953148;29;20038;-61
2023/06/18 01:55:07;;;;;;;9.45;6.90;;;;;;;;;;4952073;29;20024;-61
2023/06/18 01:57:36;;;;;;;8.88;7.25;;;;;;;;;;4952948;29;20035;-61
2023/06/18 02:00:06;;;;;;;9.93;7.05;;;;;;;;;;4951608;29;20036;-60
2023/06/18 02:02:43;;;;;;;8.90;6.40;;;;;;;;;;4942707;29;20034;-61
2023/06/18 02:05:11;;;;;;;9.18;6.57;;;;;;;;;;4940837;29;20044;-61
2023/06/18 02:07:42;;;;;;;9.48;6.93;;;;;;;;;;4945303;29;20090;-61
2023/06/18 02:10:09;;;;;;;8.55;6.80;;;;;;;;;;4940398;29;20429;-62
2023/06/18 02:12:35;;;;;;;9.10;7.40;;;;;;;;;;4948264;29;20027;-63
2023/06/18 02:15:01;;;;;;;7.40;6.57;;;;;;;;;;4941974;29;20062;-61
2023/06/18 02:17:28;;;;;;;9.75;7.03;;;;;;;;;;4944943;29;20104;-62
2023/06/18 02:19:57;;;;;;;10.45;7.43;;;;;;;;;;4943556;29;20493;-61
2023/06/18 02:22:24;;;;;;;8.32;7.00;;;;;;;;;;4941584;29;20040;-63
2023/06/18 02:24:53;;;;;;;8.00;6.90;;;;;;;;;;4939647;29;20162;-62
2023/06/18 02:27:21;;;;;;;8.40;7.00;;;15.40;99.90;;;;;;4947526;29;20031;-60
2023/06/18 02:30:01;;;;;;;8.77;7.10;;;15.40;99.90;;;;;;4941005;29;20035;-63
2023/06/18 02:32:28;;;;;;;8.07;7.10;;;15.20;88.10;;;;;;4945307;29;20031;-61
2023/06/18 02:35:00;;;;;;;8.30;6.75;;;15.10;88.70;;;;;;4939417;28;20504;-61
2023/06/18 02:37:31;;;;;;;8.52;7.30;;;15.00;89.40;;;;;;4942658;29;20067;-61
2023/06/18 02:39:57;;;;;;;9.02;7.15;;;15.00;90.10;;;;;;4947751;29;20046;-61
2023/06/18 02:42:23;;;;;;;11.23;7.15;;;15.00;90.10;;;;;;4956210;29;20023;-61
2023/06/18 02:44:57;;;;;;;8.63;7.22;;;15.00;90.20;;;;;;4943503;29;20028;-62
2023/06/18 02:47:23;;;;;;;8.52;7.38;;;15.00;90.30;;;;;;4948855;29;20035;-60
2023/06/18 02:49:51;;;;;;;9.45;7.50;;;15.10;90.30;;;;;;4950975;29;20362;-61
2023/06/18 02:52:17;;;;;;;9.10;6.57;;;15.10;90.30;;;;;;4954796;29;20046;-60
2023/06/18 02:54:44;;;;;;;7.63;6.63;;;15.10;90.30;;;;;;4955214;29;20035;-61
2023/06/18 02:57:12;;;;;;;7.90;6.50;;;15.10;90.30;;;;;;4955771;29;20028;-61
2023/06/18 02:59:56;;;;;;;11.55;8.32;;;15.10;90.40;;;;;;4956090;29;20032;-61
2023/06/18 03:02:25;;;;;;;9.90;7.53;;;15.00;90.80;;;;;;4949739;29;20043;-61
2023/06/18 03:04:50;;;;;;;8.43;6.63;;;15.00;90.90;;;;;;4953204;29;20027;-61
2023/06/18 03:07:28;;;;;;;8.75;6.90;;;15.00;90.80;;;;;;4954724;29;20031;-61
2023/06/18 03:09:57;;;;;;;12.77;7.35;;;14.90;90.80;;;;;;4954593;29;20130;-61
2023/06/18 03:12:29;;;;;;;9.55;6.78;;;14.90;91.00;;;;;;4955586;29;20035;-61
2023/06/18 03:14:55;;;;;;;9.50;7.00;;;14.90;91.20;;;;;;4954531;29;20034;-61
2023/06/18 03:17:29;;;;;;;8.52;6.97;;;14.90;91.30;;;;;;4955770;29;20050;-60
2023/06/18 03:20:07;;;;;;;7.97;6.95;;;14.90;91.50;;;;;;4954982;29;20056;-61
2023/06/18 03:22:32;;;;;;;8.18;6.85;;;14.90;91.90;;;;;;4952025;29;20074;-61
2023/06/18 03:25:02;;;;;;;8.27;6.90;;;14.90;91.90;;;;;;4953608;29;20039;-61
2023/06/18 03:27:33;;;;;;;8.65;7.18;;;14.80;91.70;;;;;;4955756;29;20050;-61
2023/06/18 03:29:58;;;;;;;8.30;6.95;;;14.80;92.00;;;;;;4951925;29;20506;-62
2023/06/18 03:32:33;;;;;;;7.80;6.53;;;14.80;92.20;;;;;;4955386;29;20102;-61
2023/06/18 03:35:00;;;;;;;6.97;6.22;;;14.80;92.40;;;;;;4954245;29;20077;-62
2023/06/18 03:37:31;;;;;;;7.10;6.13;;;14.70;92.50;;;;;;4954884;29;20139;-61
2023/06/18 03:39:58;;;;;;;8.88;6.65;;;14.70;92.70;;;;;;4951783;29;20373;-61
2023/06/18 03:42:26;;;;;;;10.98;6.45;;;14.70;92.80;;;;;;4955275;29;20042;-61
2023/06/18 03:45:01;;;;;;;9.02;6.95;;;14.70;92.90;;;;;;4942310;29;20453;-60
2023/06/18 03:47:27;;;;;;;8.73;6.72;;;14.70;93.00;;;;;;4944408;29;20114;-61
2023/06/18 03:49:55;;;;;;;8.52;6.93;;;14.70;93.10;;;;;;4943785;29;20035;-61
2023/06/18 03:52:21;;;;;;;7.78;6.45;;;14.80;93.30;;;;;;4939931;29;20031;-61
2023/06/18 03:54:47;;;;;;;9.07;7.22;;;14.80;93.40;;;;;;4946256;29;20027;-62
2023/06/18 03:57:15;;;;;;;9.23;6.20;;;14.70;93.50;;;;;;4944908;29;20023;-61
2023/06/18 03:59:42;;;;;;;8.50;6.40;;;14.80;93.50;;;;;;4945296;29;20473;-61
2023/06/18 04:02:07;;;;;;;8.18;6.25;;;14.80;93.50;;;;;;4943787;29;20674;-61
2023/06/18 04:04:36;;;;;;;8.80;7.00;;;14.80;93.70;;;;;;4944720;29;20035;-60
2023/06/18 04:07:01;;;;;;;7.32;6.30;;;14.90;93.80;;;;;;4944912;29;20038;-62
2023/06/18 04:09:30;;;;;;;8.05;6.30;;;15.00;93.90;;;;;;4949720;29;20031;-62
2023/06/18 04:11:58;;;;;;;8.10;6.03;;;15.00;93.90;;;;;;4953755;29;20369;-61
2023/06/18 04:14:25;;;;;;;7.85;6.90;;;15.00;94.00;;;;;;4954176;29;20039;-61
2023/06/18 04:16:51;;;;;;;7.85;6.38;;;15.10;94.30;;;;;;4953684;29;20441;-61
2023/06/18 04:19:19;;;;;;;8.90;6.30;;;15.20;94.10;;;;;;4953194;29;20122;-61
2023/06/18 04:21:48;;;;;;;8.27;6.60;;;15.30;94.00;;;;;;4954315;29;20036;-61
2023/06/18 04:24:16;;;;;;;8.00;7.05;;;15.30;94.00;;;;;;4951414;29;20065;-60
2023/06/18 04:26:42;;;;;;;8.27;6.55;;;15.40;94.10;;;;;;4955292;29;20027;-61
2023/06/18 04:29:10;;;;;;;8.45;6.88;;;15.60;94.10;;;;;;4954186;29;20644;-61
2023/06/18 04:31:46;;;;;;;9.63;7.00;;;15.70;93.80;;;;;;4956264;29;20027;-60
2023/06/18 04:34:14;;;;;;;7.80;6.57;;;15.80;93.70;;;;;;4953644;29;20027;-60
2023/06/18 04:36:40;;;;;;;11.57;7.03;;;16.00;93.70;;;;;;4953685;29;20051;-60
2023/06/18 04:39:08;;;;;;;8.20;6.72;;;16.10;93.30;;;;;;4953007;29;20020;-60
2023/06/18 04:41:33;;;;;;;10.23;7.95;;;16.20;93.00;;;;;;4953340;29;20443;-60
2023/06/18 04:43:59;;;;;;;11.45;7.85;;;16.40;92.70;;;;;;4949880;29;20161;-60
2023/06/18 04:46:24;;;;;;;11.80;8.23;;;16.60;92.60;;;;;;4953732;29;20030;-61
2023/06/18 04:48:53;;;;;;;12.40;8.02;;;16.70;92.20;;;;;;4952517;29;20031;-61
2023/06/18 04:51:21;;;;;;;9.50;7.63;;;16.90;92.10;;;;;;4944696;29;20031;-60
2023/06/18 04:53:47;;;;;;;9.43;8.30;;;17.00;91.60;;;;;;4940971;29;20188;-61
2023/06/18 04:56:13;;;;;;;10.55;8.05;;;17.10;91.50;;;;;;4943556;29;20567;-60
2023/06/18 04:58:40;;;;;;;11.45;8.70;;;17.20;91.40;;;;;;4944642;28;20032;-61
2023/06/18 05:01:17;;;;;;;10.07;7.82;;;17.30;91.60;;;;;;4942753;29;20054;-61
2023/06/18 05:03:43;;;;;;;9.30;7.70;;;17.40;91.70;;;;;;4945918;29;20307;-61
2023/06/18 05:06:14;;;;;;;9.80;7.97;;;17.40;91.60;;;;;;4939547;29;20556;-61
2023/06/18 05:08:46;;;;;;;9.70;8.55;;;17.50;91.70;;;;;;4940520;29;20726;-61
2023/06/18 05:11:14;;;;;;;9.13;8.15;;;17.50;91.10;;;;;;4942663;29;20035;-62
2023/06/18 05:13:49;;;;;;;10.80;8.63;;;17.60;91.20;;;;;;4944584;29;20031;-62
2023/06/18 05:16:19;;;;;;;10.82;8.18;;;17.60;91.40;;;;;;4945318;29;20499;-60
2023/06/18 05:18:55;;;;;;;12.55;8.82;;;17.60;91.70;;;;;;4944726;29;20443;-61
2023/06/18 05:21:21;;;;;;;12.40;8.65;;;17.50;92.00;;;;;;4942984;29;20047;-61
2023/06/18 05:23:52;;;;;;;12.27;8.95;;;17.60;91.90;;;;;;4940217;29;20035;-61
2023/06/18 05:26:18;;;;;;;11.75;8.00;;;17.60;92.20;;;;;;4941397;29;20377;-61
2023/06/18 05:28:44;;;;;;;9.77;8.05;;;17.60;92.00;;;;;;4943716;29;20035;-62
2023/06/18 05:31:19;;;;;;;9.75;8.75;;;17.60;91.80;;;;;;4941955;29;20114;-61
2023/06/18 05:33:47;;;;;;;14.32;9.00;;;17.70;91.80;;;;;;4952936;29;20038;-62
2023/06/18 05:36:15;;;;;;;10.32;8.23;;;17.70;91.70;;;;;;4952036;29;20043;-61
2023/06/18 05:38:41;;;;;;;13.35;8.30;;;17.80;91.70;;;;;;4953498;29;20031;-60
2023/06/18 05:41:07;;;;;;;9.48;8.15;;;17.80;91.60;;;;;;4951998;29;20031;-61
2023/06/18 05:43:37;;;;;;;9.73;8.75;;;17.90;91.50;;;;;;4952734;29;20046;-60
2023/06/18 05:46:08;;;;;;;13.35;8.30;;;18.00;91.10;;;;;;4951623;29;20051;-60
2023/06/18 05:48:36;;;;;;;11.95;9.43;;;18.10;91.10;;;;;;4950791;29;20038;-61
2023/06/18 05:51:02;;;;;;;9.77;8.63;;;18.20;91.10;;;;;;4943128;29;20042;-62
2023/06/18 05:53:30;;;;;;;12.70;9.32;;;18.30;91.30;;;;;;4944282;29;20464;-61
2023/06/18 05:56:15;;;;;;;9.30;8.27;;;18.40;91.10;;;;;;4942752;29;20034;-60
2023/06/18 05:58:46;;;;;;;10.23;8.30;;;18.50;91.10;;;;;;4943648;29;20396;-60
2023/06/18 06:01:14;;;;;;;10.95;8.43;;;18.70;91.10;;;;;;4952415;29;20036;-61
2023/06/18 06:03:40;;;;;;;12.52;8.98;;;18.80;91.10;;;;;;4952888;29;20035;-60
2023/06/18 06:06:08;;;;;;;12.65;8.88;;;18.90;91.00;;;;;;4951656;29;20268;-60
2023/06/18 06:08:37;;;;;;;13.52;8.82;;;19.00;90.70;;;;;;4951860;28;20047;-61
2023/06/18 06:11:11;;;;;;;11.98;8.40;;;19.10;90.50;;;;;;4954232;29;20043;-60
2023/06/18 06:13:39;;;;;;;11.82;9.00;;;19.30;90.40;;;;;;4956954;29;20043;-61
2023/06/18 06:16:08;;;;;;;13.50;8.90;;;19.40;90.30;;;;;;4953456;29;20503;-61
2023/06/18 06:18:33;;;;;;;11.77;9.05;;;19.50;89.90;;;;;;4954968;29;20039;-61
2023/06/18 06:21:01;;;;;;;10.07;8.32;;;19.70;89.70;;;;;;4955323;29;20042;-61
2023/06/18 06:23:36;;;;;;;10.27;8.07;;;19.80;89.20;;;;;;4953171;29;20083;-61
2023/06/18 06:26:04;;;;;;;10.90;9.43;;;19.90;90.00;;;;;;4955038;29;20058;-62
2023/06/18 06:28:33;;;;;;;9.45;8.27;;;20.10;89.10;;;;;;4956616;29;20106;-62
2023/06/18 06:30:58;;;;;;;10.73;7.82;;;20.20;89.00;;;;;;4955290;29;20039;-62
2023/06/18 06:33:24;;;;;;;9.70;8.70;;;20.30;88.90;;;;;;4953793;29;20115;-62
2023/06/18 06:35:59;;;;;;;13.68;8.45;;;20.40;89.10;;;;;;4954133;29;20043;-61
2023/06/18 06:38:25;;;;;;;11.25;9.18;;;20.50;88.50;;;;;;4941038;29;20031;-60
2023/06/18 06:40:53;;;;;;;11.38;8.85;;;20.70;88.00;;;;;;4946747;29;20035;-62
2023/06/18 06:43:19;;;;;;;9.85;8.60;;;20.70;88.30;;;;;;4947021;29;20059;-62
2023/06/18 06:45:54;;;;;;;15.10;9.27;;;20.90;87.50;;;;;;4942453;29;20047;-62
2023/06/18 06:48:22;;;;;;;12.07;8.98;;;21.00;87.10;;;;;;4944858;29;21728;-61
2023/06/18 06:50:47;;;;;;;14.80;8.40;;;21.00;86.80;;;;;;4944494;29;20153;-61
2023/06/18 06:53:16;;;;;;;10.70;8.98;;;21.10;86.70;;;;;;4954444;29;20122;-62
2023/06/18 06:55:41;;;;;;;9.98;8.13;;;21.10;86.20;;;;;;4954117;29;20102;-62
2023/06/18 06:58:09;;;;;;;10.98;8.23;;;21.20;86.40;;;;;;4952323;29;20115;-60
2023/06/18 07:00:35;;;;;;;13.77;9.38;;;21.30;86.00;;;;;;4954866;29;20043;-61
2023/06/18 07:03:01;;;;;;;11.45;9.23;;;21.50;86.00;;;;;;4954423;29;20038;-61
2023/06/18 07:05:29;;;;;;;9.52;8.43;;;21.60;85.40;;;;;;4954399;29;20465;-61
2023/06/18 07:07:54;;;;;;;12.30;9.63;;;21.70;85.30;;;;;;4950680;29;20062;-60
2023/06/18 07:10:20;;;;;;;9.80;8.35;;;21.80;84.90;;;;;;4954478;29;20417;-61
2023/06/18 07:12:48;;;;;;;11.32;8.45;;;21.90;84.70;;;;;;4954085;29;20084;-60
2023/06/18 07:15:14;;;;;;;11.70;8.82;;;22.10;84.40;;;;;;4954181;29;20400;-60
2023/06/18 07:17:40;;;;;;;12.73;8.43;;;22.20;83.90;;;;;;4955481;29;20023;-61
2023/06/18 07:20:13;;;;;;;11.23;7.85;;;22.20;84.10;;;;;;4950802;29;20105;-61
2023/06/18 07:22:41;;;;;;;12.73;8.70;;;;;;;;;;4943304;29;20035;-61
2023/06/18 07:25:13;;;;;;;9.82;8.32;;;;;;;;;;4941549;29;20173;-62
2023/06/18 07:27:39;;;;;;;11.63;8.65;;;;;;;;;;4940900;29;20028;-61
2023/06/18 07:30:08;;;;;;;11.38;8.73;;;;;;;;;;4942202;29;20110;-61
2023/06/18 07:32:37;;;;;;;10.93;9.43;;;;;;;;;;4943501;29;20295;-63
2023/06/18 07:35:12;;;;;;;9.00;8.10;;;23.30;99.90;;;;;;4942746;29;20033;-63
2023/06/18 07:37:38;;;;;;;9.93;7.97;;;23.40;99.30;;;;;;4944819;29;20055;-62
2023/06/18 07:40:05;;;;;;;10.98;9.27;;;23.40;98.70;;;;;;4942574;29;20027;-63
2023/06/18 07:42:30;;;;;;;17.58;8.57;;;23.50;96.90;;;;;;4943422;29;20051;-63
2023/06/18 07:44:56;;;;;;;9.13;8.23;;;23.60;96.30;;;;;;4942864;29;20035;-62
2023/06/18 07:47:21;;;;;;;11.18;8.40;;;23.70;96.30;;;;;;4942694;28;20023;-62
2023/06/18 07:49:47;;;;;;;9.60;8.55;;;23.80;93.60;;;;;;4951423;29;20030;-62
2023/06/18 07:52:13;;;;;;;10.93;7.90;;;23.90;80.20;;;;;;4947857;28;20027;-61
2023/06/18 07:54:38;;;;;;;13.45;8.95;;;24.00;80.70;;;;;;4950606;29;20556;-61
2023/06/18 07:57:05;;;;;;;12.50;8.43;;;24.10;79.50;;;;;;4950092;28;20134;-61
2023/06/18 07:59:31;;;;;;;10.77;7.97;;;24.20;79.30;;;;;;4949353;29;20103;-61
2023/06/18 08:01:59;;;;;;;9.07;8.00;;;24.30;78.70;;;;;;4921704;29;20523;-62
2023/06/18 08:04:25;;;;;;;11.40;7.95;;;24.40;78.80;;;;;;4942396;29;20031;-61
2023/06/18 08:06:50;;;;;;;12.82;8.45;;;24.60;78.10;;;;;;4941481;28;20039;-64
2023/06/18 08:09:17;;;;;;;9.55;8.38;;;24.80;78.10;;;;;;4944041;29;20033;-61
2023/06/18 08:11:46;;;;;;;12.18;8.35;;;;;;;;;;4946459;28;20035;-61
2023/06/18 08:14:12;;;;;;;11.25;8.82;;;;;;;;;;4953247;29;20023;-60
2023/06/18 08:16:38;;;;;;;9.07;8.05;;;25.20;99.20;;;;;;4948672;28;20038;-61
2023/06/18 08:19:04;;;;;;;9.90;7.75;;;25.50;79.90;;;;;;4951285;29;20031;-61
2023/06/18 08:21:32;;;;;;;12.43;7.82;;;25.70;74.10;;;;;;4946708;28;20127;-61
2023/06/18 08:24:05;;;;;;;9.45;6.90;;;25.80;72.60;;;;;;4951861;29;20098;-61
2023/06/18 08:26:30;;;;;;;12.77;7.60;;;25.90;72.80;;;;;;4950092;28;20082;-61
2023/06/18 08:29:07;;;;;;;8.48;6.97;;;26.00;72.50;;;;;;4946315;29;20031;-60
2023/06/18 08:31:33;;;;;;;7.72;6.15;;;26.10;71.30;;;;;;4948186;28;20393;-61
2023/06/18 08:34:06;;;;;;;8.23;6.50;;;26.20;69.20;;;;;;4950696;28;20114;-62
2023/06/18 08:36:35;;;;;;;8.32;6.15;;;26.40;82.30;;;;;;4949910;28;20047;-62
2023/06/18 08:39:00;;;;;;;6.88;5.90;;;26.60;93.70;;;;;;4951899;29;20046;-60
2023/06/18 08:41:27;;;;;;;10.10;6.25;;;26.80;93.70;;;;;;4942737;28;20046;-61
2023/06/18 08:44:00;;;;;;;10.57;7.07;;;;;;;;;;4939149;29;20494;-65
2023/06/18 08:46:29;;;;;;;8.77;6.70;;;;;;;;;;4938403;29;20027;-63
2023/06/18 08:49:00;;;;;;;7.70;7.00;;;;;;;;;;4941697;29;20031;-62
2023/06/18 08:51:37;;;;;;;6.93;6.22;;;27.70;95.30;;;;;;4940361;29;20030;-62
2023/06/18 08:54:16;;;;;;;6.57;5.88;;;27.90;85.90;;;;;;4940413;29;20035;-64
2023/06/18 08:56:50;;;;;;;6.65;5.93;;;28.00;65.70;;;;;;4946104;29;20111;-62
2023/06/18 08:59:18;;;;;;;8.13;6.13;;;28.00;61.00;;;;;;4941100;29;20034;-62
2023/06/18 09:01:46;;;;;;;7.90;6.50;;;28.10;61.30;;;;;;4942604;29;20034;-61
2023/06/18 09:04:19;;;;;;;11.25;6.00;;;28.10;61.60;;;;;;4941712;29;20027;-62
2023/06/18 09:06:47;;;;;;;9.00;5.82;;;28.20;61.30;;;;;;4946782;29;20055;-64
2023/06/18 09:09:15;;;;;;;6.80;6.10;;;28.20;60.40;;;;;;4942927;29;20480;-61
2023/06/18 09:11:40;;;;;;;8.05;6.22;;;28.40;60.50;;;;;;4952335;28;20031;-62
2023/06/18 09:14:09;;;;;;;9.50;5.68;;;28.50;59.70;;;;;;4952435;29;20031;-62
2023/06/18 09:16:45;;;;;;;6.60;5.53;;;28.60;56.70;;;;;;4952615;29;20050;-61
2023/06/18 09:19:12;;;;;;;7.28;6.00;;;28.50;56.60;;;;;;4948361;29;20041;-62
2023/06/18 09:21:42;;;;;;;7.00;6.03;;;28.60;55.50;;;;;;4947291;29;20039;-62
2023/06/18 09:24:19;;;;;;;5.75;5.20;;;28.70;54.80;;;;;;4937474;29;20163;-63
2023/06/18 09:26:53;;;;;;;11.48;6.22;;;28.50;55.40;;;;;;4943053;29;20054;-64
2023/06/18 09:29:30;;;;;;;8.90;5.70;;;28.60;55.60;;;;;;4939153;29;20548;-61
2023/06/18 09:32:04;;;;;;;7.68;5.93;;;28.70;55.20;;;;;;4940044;29;20034;-62
2023/06/18 09:34:32;;;;;;;9.00;5.78;;;28.80;55.20;;;;;;4938010;29;20031;-71
2023/06/18 09:37:01;;;;;;;9.18;5.97;;;28.90;54.90;;;;;;4942927;29;20047;-66
2023/06/18 09:39:26;;;;;;;6.63;5.53;;;29.10;55.30;;;;;;4939144;28;20154;-64
2023/06/18 09:41:58;;;;;;;9.57;6.20;;;29.20;54.80;;;;;;4939399;29;20114;-63
2023/06/18 09:44:26;;;;;;;7.78;5.75;;;29.40;54.10;;;;;;4939902;28;20043;-64
2023/06/18 09:46:56;;;;;;;6.15;5.53;;;29.60;53.50;;;;;;4940016;29;20047;-63
2023/06/18 09:49:28;;;;;;;;;;;29.70;88.70;;;;;;4946250;28;20091;-64
2023/06/18 09:51:54;;;;;;;6.63;5.93;;;29.60;85.90;;;;;;4948493;29;19957;-63
2023/06/18 09:54:23;;;;;;;7.38;5.75;;;29.60;77.30;;;;;;4948707;28;20031;-65
2023/06/18 09:56:59;;;;;;;6.18;5.57;;;29.50;54.20;;;;;;4946683;29;20037;-64
2023/06/18 09:59:28;;;;;;;6.50;5.88;;;29.60;54.00;;;;;;4946989;28;20095;-63
2023/06/18 10:01:59;;;;;;;6.55;5.88;;;29.80;54.10;;;;;;4939056;29;20130;-63
2023/06/18 10:04:34;;;;;;;10.13;5.65;;;30.00;53.80;;;;;;4950266;28;20106;-62
2023/06/18 10:07:04;;;;;;;7.90;4.93;;;30.10;53.60;;;;;;4948785;29;20480;-62
2023/06/18 10:09:44;;;;;;;5.88;5.07;;;30.20;53.70;;;;;;4948919;28;20031;-63
2023/06/18 10:12:16;;;;;;;6.57;5.35;;;30.20;53.80;;;;;;4949340;29;20031;-65
2023/06/18 10:14:49;;;;;;;7.60;4.70;;;30.30;52.90;;;;;;4951074;28;20038;-62
2023/06/18 10:17:17;;;;;;;6.13;5.40;;;30.30;53.40;;;;;;4950197;29;20035;-64
2023/06/18 10:20:03;;;;;;;5.65;4.72;;;30.60;52.60;;;;;;4936815;28;20050;-63
2023/06/18 10:22:34;;;;;;;5.90;5.30;;;30.60;52.40;;;;;;4950784;29;20055;-63
2023/06/18 10:25:10;;;;;;;7.05;5.80;;;30.50;52.30;;;;;;4946819;28;20044;-62
2023/06/18 10:27:36;;;;;;;5.75;5.07;;;30.50;52.40;;;;;;4952084;29;20063;-62
2023/06/18 10:30:08;;;;;;;5.55;5.05;;;30.50;53.00;;;;;;4947289;28;20036;-62
2023/06/18 10:32:42;;;;;;;6.55;5.72;;;30.60;52.10;;;;;;4951529;29;20038;-63
2023/06/18 10:35:09;;;;;;;8.70;5.50;;;30.70;52.80;;;;;;4949954;28;20022;-63
2023/06/18 10:37:40;;;;;;;9.20;5.38;;;30.80;51.40;;;;;;4947051;29;20035;-64
2023/06/18 10:40:07;;;;;;;7.80;5.63;;;30.80;52.00;;;;;;4940046;28;20027;-62
2023/06/18 10:42:43;;;;;;;6.53;5.03;;;30.80;52.60;;;;;;4940205;29;20035;-63
2023/06/18 10:45:13;;;;;;;5.85;5.20;;;30.70;52.10;;;;;;4940307;28;20050;-64
2023/06/18 10:47:40;;;;;;;6.97;5.18;;;30.70;51.60;;;;;;4942689;29;20027;-64
2023/06/18 10:50:16;;;;;;;5.75;5.25;;;30.70;52.20;;;;;;4950261;28;20109;-63
2023/06/18 10:52:50;;;;;;;8.10;5.10;;;30.70;51.60;;;;;;4951359;29;20050;-63
2023/06/18 10:55:18;;;;;;;6.80;5.30;;;30.60;52.40;;;;;;4946123;28;20027;-63
2023/06/18 10:57:47;;;;;;;6.43;5.82;;;30.60;51.90;;;;;;4954718;29;20023;-64
2023/06/18 11:00:18;;;;;;;7.63;5.87;;;30.70;52.00;;;;;;4954451;28;20102;-62
2023/06/18 11:02:45;;;;;;;5.60;5.10;;;30.70;68.60;;;;;;4953885;29;20444;-63
2023/06/18 11:05:35;;;;;;;5.93;5.07;;;30.90;68.70;;;;;;4945049;28;20050;-62
2023/06/18 11:08:11;;;;;;;7.55;5.60;;;30.80;68.70;;;;;;4945115;29;20433;-61
2023/06/18 11:11:25;;;;;;;9.40;5.18;;;30.80;68.50;;;;;;4943368;28;20045;-63
2023/06/18 11:13:54;;;;;;;6.18;5.15;;;30.90;69.30;;;;;;4944693;29;20110;-66
2023/06/18 11:16:23;;;;;;;7.35;5.38;;;30.90;68.80;;;;;;4939527;29;20046;-63
2023/06/18 11:18:50;;;;;;;7.50;5.45;;;31.10;70.80;;;;;;4942009;28;20544;-66
2023/06/18 11:21:17;;;;;;;5.80;5.30;;;31.10;69.10;;;;;;4938950;29;20475;-64
2023/06/18 11:23:43;;;;;;;6.10;5.13;;;31.20;68.60;;;;;;4944631;29;20528;-63
2023/06/18 11:26:20;;;;;;;6.72;5.53;;;31.30;68.00;;;;;;4941270;29;20039;-65
2023/06/18 11:28:52;;;;;;;8.82;5.20;;;31.40;65.60;;;;;;4946468;29;20043;-66
2023/06/18 11:31:20;;;;;;;5.60;5.10;;;31.40;58.60;;;;;;4944508;29;20717;-65
2023/06/18 11:33:49;;;;;;;6.80;5.18;;;31.60;65.40;;;;;;4949921;28;20473;-67
2023/06/18 11:36:17;;;;;;;7.10;5.72;;;31.70;51.20;;;;;;4950428;29;20101;-64
2023/06/18 11:38:51;;;;;;;6.32;5.72;;;31.90;50.80;;;;;;4953785;29;20484;-64
2023/06/18 11:41:21;;;;;;;6.15;5.55;;;32.10;66.10;;;;;;4954537;29;20034;-63
2023/06/18 11:43:48;;;;;;;;;;;32.30;73.40;;;;;;4948130;29;20485;-69
2023/06/18 11:46:33;;;;;;;6.32;4.60;;;32.40;49.70;;;;;;4948772;28;19911;-68
2023/06/18 11:48:59;;;;;;;5.00;4.50;;;32.50;49.10;;;;;;4926580;28;20547;-68
2023/06/18 11:51:26;;;;;;;7.30;4.80;;;32.60;49.20;;;;;;4946989;29;20038;-68
2023/06/18 11:53:58;;;;;;;5.78;5.25;;;32.70;49.10;;;;;;4939477;28;20046;-66
2023/06/18 11:56:26;;;;;;;7.57;5.30;;;32.90;49.30;;;;;;4940157;29;20035;-69
2023/06/18 11:59:02;;;;;;;5.50;5.00;;;33.00;48.50;;;;;;4942666;28;20496;-70
2023/06/18 12:01:32;;;;;;;5.03;4.60;;;32.90;49.10;;;;;;4942597;29;20054;-71
2023/06/18 12:04:11;;;;;;;5.65;5.10;;;33.00;49.10;;;;;;4943810;28;20480;-69
2023/06/18 12:06:39;;;;;;;5.23;4.50;;;33.10;48.60;;;;;;4939176;29;20065;-69
2023/06/18 12:09:21;;;;;;;5.32;4.85;;;33.20;69.00;;;;;;4941238;28;20368;-69
2023/06/18 12:12:17;;;;;;;6.75;5.07;;;33.30;73.80;;;;;;4944079;29;20034;-71
2023/06/18 12:15:08;;;;;;;5.63;4.85;;;33.20;60.80;;;;;;4942486;28;20027;-68
2023/06/18 12:17:52;;;;;;;6.13;5.53;;;33.10;48.50;;;;;;4941499;29;20027;-68
2023/06/18 12:20:25;;;;;;;5.43;4.93;;;33.10;48.70;;;;;;4939375;28;20079;-68
2023/06/18 12:22:56;;;;;;;5.53;5.03;;;33.10;48.70;;;;;;4939117;29;20090;-72
2023/06/18 12:25:24;;;;;;;5.55;5.05;;;33.30;48.60;;;;;;4940148;28;20082;-65
2023/06/18 12:28:02;;;;;;;5.32;4.82;;;33.40;48.70;;;;;;4939172;29;20043;-66
2023/06/18 12:30:41;;;;;;;5.60;4.82;;;33.20;48.50;;;;;;4938120;28;20047;-66
2023/06/18 12:33:11;;;;;;;6.32;5.72;;;33.10;48.90;;;;;;4927399;29;20615;-66
2023/06/18 12:35:54;;;;;;;5.07;4.53;;;33.30;49.10;;;;;;4948407;28;20090;-67
2023/06/18 12:38:22;;;;;;;5.15;4.72;;;33.50;48.30;;;;;;4953033;29;20172;-65
2023/06/18 12:41:04;;;;;;;5.20;4.80;;;33.60;48.40;;;;;;4951307;28;20492;-66
2023/06/18 12:43:39;;;;;;;5.53;4.78;;;33.60;48.20;;;;;;4953023;29;20065;-65
2023/06/18 12:46:04;;;;;;;5.20;4.75;;;33.80;48.50;;;;;;4940919;28;20035;-66
2023/06/18 12:48:46;;;;;;;6.47;5.00;;;33.90;49.10;;;;;;4946255;29;20064;-65
2023/06/18 12:51:21;;;;;;;5.43;5.03;;;33.90;48.60;;;;;;4953203;28;20496;-65
2023/06/18 12:53:46;;;;;;;5.45;4.95;;;33.90;48.90;;;;;;4952462;29;20023;-66
2023/06/18 12:56:29;;;;;;;5.20;4.75;;;33.90;48.30;;;;;;4948625;28;20027;-65
2023/06/18 12:59:03;;;;;;;5.15;4.75;;;34.00;48.00;;;;;;4950474;28;20031;-65
2023/06/18 13:01:28;;;;;;;4.80;4.30;;;34.00;47.90;;;;;;4947003;29;20035;-65
2023/06/18 13:03:55;;;;;;;6.10;5.18;;;34.10;47.80;;;;;;4949046;28;20400;-65
2023/06/18 13:06:23;;;;;;;5.10;4.60;;;34.20;47.50;;;;;;4949994;29;20039;-67
2023/06/18 13:08:51;;;;;;;5.07;4.63;;;34.30;47.10;;;;;;4946026;28;20027;-66
2023/06/18 13:11:20;;;;;;;5.07;4.43;;;34.20;47.20;;;;;;4950796;29;20090;-66
2023/06/18 13:13:45;;;;;;;5.03;4.63;;;34.30;47.10;;;;;;4951988;29;20031;-67
2023/06/18 13:16:13;;;;;;;5.20;4.55;;;34.30;47.50;;;;;;4947271;28;20034;-66
2023/06/18 13:18:42;;;;;;;4.97;4.35;;;34.50;46.80;;;;;;4946284;28;20118;-65